Terminal Aerodrome Forecast
Issued by NWS Nashville, TN

Current Version | Previous Version | Text Only | Print | Product List | Glossary Off
Versions: 1 2 3 4 5 6 7 8 9 10 11 12 13 14 15 16 17 18 19 20 21 22 23 24 25 26 27

000
FTUS44 KOHX 271300 AAA
TAFCSV
TAF AMD
KCSV 271305Z 2713/2812 VRB04KT P6SM OVC009
     FM271600 23006KT P6SM SCT040 BKN250
      TEMPO 2722/2802 3SM TSRA BR BKN010CB OVC015
     FM280200 20003KT 4SM BR BKN035=

USA.gov is the U.S. government's official web portal to all federal, state and local government web resources and services.